sensor_id;sensor_type;location;lat;lon;timestamp;P1;durP1;ratioP1;P2;durP2;ratioP2
30697;SDS011;17448;47.200;10.902;2023-03-01T00:02:07;35.47;;;19.67;;
30697;SDS011;17448;47.200;10.902;2023-03-01T00:04:33;34.33;;;19.08;;
30697;SDS011;17448;47.200;10.902;2023-03-01T00:07:01;40.05;;;20.33;;
30697;SDS011;17448;47.200;10.902;2023-03-01T00:09:27;37.05;;;20.08;;
30697;SDS011;17448;47.200;10.902;2023-03-01T00:11:53;33.97;;;19.98;;
30697;SDS011;17448;47.200;10.902;2023-03-01T00:14:19;37.75;;;20.10;;
30697;SDS011;17448;47.200;10.902;2023-03-01T00:16:45;33.17;;;19.92;;
30697;SDS011;17448;47.200;10.902;2023-03-01T00:19:12;34.33;;;19.75;;
30697;SDS011;17448;47.200;10.902;2023-03-01T00:21:39;34.33;;;19.27;;
30697;SDS011;17448;47.200;10.902;2023-03-01T00:24:05;34.58;;;20.10;;
30697;SDS011;17448;47.200;10.902;2023-03-01T00:26:32;38.33;;;20.00;;
30697;SDS011;17448;47.200;10.902;2023-03-01T00:28:58;36.42;;;20.35;;
30697;SDS011;17448;47.200;10.902;2023-03-01T00:31:26;34.92;;;20.65;;
30697;SDS011;17448;47.200;10.902;2023-03-01T00:33:53;36.28;;;20.38;;
30697;SDS011;17448;47.200;10.902;2023-03-01T00:36:23;33.63;;;19.35;;
30697;SDS011;17448;47.200;10.902;2023-03-01T00:38:50;34.45;;;20.48;;
30697;SDS011;17448;47.200;10.902;2023-03-01T00:41:16;36.47;;;19.42;;
30697;SDS011;17448;47.200;10.902;2023-03-01T00:43:43;37.08;;;19.75;;
30697;SDS011;17448;47.200;10.902;2023-03-01T00:46:11;41.97;;;20.90;;
30697;SDS011;17448;47.200;10.902;2023-03-01T00:48:37;36.35;;;21.52;;
30697;SDS011;17448;47.200;10.902;2023-03-01T00:51:08;37.85;;;20.00;;
30697;SDS011;17448;47.200;10.902;2023-03-01T00:53:35;38.38;;;20.95;;
30697;SDS011;17448;47.200;10.902;2023-03-01T00:56:01;36.38;;;21.75;;
30697;SDS011;17448;47.200;10.902;2023-03-01T00:58:28;38.75;;;20.90;;
30697;SDS011;17448;47.200;10.902;2023-03-01T01:00:54;39.83;;;22.25;;
30697;SDS011;17448;47.200;10.902;2023-03-01T01:03:20;38.90;;;22.40;;
30697;SDS011;17448;47.200;10.902;2023-03-01T01:05:47;36.35;;;20.63;;
30697;SDS011;17448;47.200;10.902;2023-03-01T01:08:13;42.08;;;20.92;;
30697;SDS011;17448;47.200;10.902;2023-03-01T01:10:39;38.95;;;20.50;;
30697;SDS011;17448;47.200;10.902;2023-03-01T01:13:05;39.80;;;21.83;;
30697;SDS011;17448;47.200;10.902;2023-03-01T01:15:34;33.80;;;20.60;;
30697;SDS011;17448;47.200;10.902;2023-03-01T01:18:01;38.05;;;21.40;;
30697;SDS011;17448;47.200;10.902;2023-03-01T01:20:27;47.03;;;21.85;;
30697;SDS011;17448;47.200;10.902;2023-03-01T01:22:53;32.65;;;19.23;;
30697;SDS011;17448;47.200;10.902;2023-03-01T01:25:19;36.30;;;20.25;;
30697;SDS011;17448;47.200;10.902;2023-03-01T01:27:45;36.63;;;19.95;;
30697;SDS011;17448;47.200;10.902;2023-03-01T01:30:12;36.60;;;19.42;;
30697;SDS011;17448;47.200;10.902;2023-03-01T01:32:38;38.67;;;20.52;;
30697;SDS011;17448;47.200;10.902;2023-03-01T01:35:04;33.97;;;20.60;;
30697;SDS011;17448;47.200;10.902;2023-03-01T01:37:31;33.88;;;20.83;;
30697;SDS011;17448;47.200;10.902;2023-03-01T01:39:58;36.30;;;19.15;;
30697;SDS011;17448;47.200;10.902;2023-03-01T01:42:25;34.90;;;19.63;;
30697;SDS011;17448;47.200;10.902;2023-03-01T01:47:36;38.65;;;20.63;;
30697;SDS011;17448;47.200;10.902;2023-03-01T01:50:03;35.80;;;19.17;;
30697;SDS011;17448;47.200;10.902;2023-03-01T01:52:31;36.03;;;21.67;;
30697;SDS011;17448;47.200;10.902;2023-03-01T01:55:07;38.55;;;21.60;;
30697;SDS011;17448;47.200;10.902;2023-03-01T01:57:44;38.92;;;20.63;;
30697;SDS011;17448;47.200;10.902;2023-03-01T02:00:18;33.95;;;19.70;;
30697;SDS011;17448;47.200;10.902;2023-03-01T02:02:46;37.78;;;19.95;;
30697;SDS011;17448;47.200;10.902;2023-03-01T02:05:24;34.92;;;20.45;;
30697;SDS011;17448;47.200;10.902;2023-03-01T02:07:52;38.83;;;20.77;;
30697;SDS011;17448;47.200;10.902;2023-03-01T02:10:19;40.85;;;22.23;;
30697;SDS011;17448;47.200;10.902;2023-03-01T02:12:45;39.17;;;20.90;;
30697;SDS011;17448;47.200;10.902;2023-03-01T02:15:11;41.30;;;22.40;;
30697;SDS011;17448;47.200;10.902;2023-03-01T02:17:37;40.58;;;22.10;;
30697;SDS011;17448;47.200;10.902;2023-03-01T02:22:36;38.03;;;22.17;;
30697;SDS011;17448;47.200;10.902;2023-03-01T02:30:25;38.08;;;21.27;;
30697;SDS011;17448;47.200;10.902;2023-03-01T02:32:52;41.70;;;22.55;;
30697;SDS011;17448;47.200;10.902;2023-03-01T02:35:19;39.95;;;22.92;;
30697;SDS011;17448;47.200;10.902;2023-03-01T02:37:45;42.22;;;23.38;;
30697;SDS011;17448;47.200;10.902;2023-03-01T02:40:14;36.00;;;20.85;;
30697;SDS011;17448;47.200;10.902;2023-03-01T02:42:53;46.38;;;21.73;;
30697;SDS011;17448;47.200;10.902;2023-03-01T02:45:21;40.97;;;22.17;;
30697;SDS011;17448;47.200;10.902;2023-03-01T02:47:48;40.17;;;21.90;;
30697;SDS011;17448;47.200;10.902;2023-03-01T02:50:41;36.50;;;20.33;;
30697;SDS011;17448;47.200;10.902;2023-03-01T02:53:08;40.30;;;22.60;;
30697;SDS011;17448;47.200;10.902;2023-03-01T02:55:37;41.15;;;22.33;;
30697;SDS011;17448;47.200;10.902;2023-03-01T02:58:04;42.95;;;21.52;;
30697;SDS011;17448;47.200;10.902;2023-03-01T03:00:42;36.40;;;20.38;;
30697;SDS011;17448;47.200;10.902;2023-03-01T03:03:14;40.08;;;21.15;;
30697;SDS011;17448;47.200;10.902;2023-03-01T03:05:41;37.70;;;20.20;;
30697;SDS011;17448;47.200;10.902;2023-03-01T03:08:07;45.10;;;21.42;;
30697;SDS011;17448;47.200;10.902;2023-03-01T03:10:36;40.95;;;21.10;;
30697;SDS011;17448;47.200;10.902;2023-03-01T03:13:04;41.00;;;22.17;;
30697;SDS011;17448;47.200;10.902;2023-03-01T03:15:30;42.00;;;21.92;;
30697;SDS011;17448;47.200;10.902;2023-03-01T03:17:57;37.00;;;21.10;;
30697;SDS011;17448;47.200;10.902;2023-03-01T03:20:24;37.83;;;21.20;;
30697;SDS011;17448;47.200;10.902;2023-03-01T03:22:52;36.08;;;21.23;;
30697;SDS011;17448;47.200;10.902;2023-03-01T03:25:19;37.00;;;20.80;;
30697;SDS011;17448;47.200;10.902;2023-03-01T03:27:46;43.25;;;22.13;;
30697;SDS011;17448;47.200;10.902;2023-03-01T03:30:14;42.08;;;22.55;;
30697;SDS011;17448;47.200;10.902;2023-03-01T03:32:41;39.58;;;21.65;;
30697;SDS011;17448;47.200;10.902;2023-03-01T03:35:21;42.67;;;22.60;;
30697;SDS011;17448;47.200;10.902;2023-03-01T03:37:47;36.00;;;20.75;;
30697;SDS011;17448;47.200;10.902;2023-03-01T03:40:32;40.90;;;21.50;;
30697;SDS011;17448;47.200;10.902;2023-03-01T03:42:59;46.97;;;23.08;;
30697;SDS011;17448;47.200;10.902;2023-03-01T03:45:25;40.65;;;22.00;;
30697;SDS011;17448;47.200;10.902;2023-03-01T03:47:51;42.00;;;21.92;;
30697;SDS011;17448;47.200;10.902;2023-03-01T03:50:17;37.08;;;22.58;;
30697;SDS011;17448;47.200;10.902;2023-03-01T03:52:43;36.60;;;19.80;;
30697;SDS011;17448;47.200;10.902;2023-03-01T03:55:10;40.55;;;21.40;;
30697;SDS011;17448;47.200;10.902;2023-03-01T03:57:40;41.60;;;23.02;;
30697;SDS011;17448;47.200;10.902;2023-03-01T04:00:08;40.05;;;21.85;;
30697;SDS011;17448;47.200;10.902;2023-03-01T04:02:41;39.95;;;21.77;;
30697;SDS011;17448;47.200;10.902;2023-03-01T04:05:08;38.17;;;21.73;;
30697;SDS011;17448;47.200;10.902;2023-03-01T04:07:35;47.40;;;24.40;;
30697;SDS011;17448;47.200;10.902;2023-03-01T04:10:05;38.90;;;22.13;;
30697;SDS011;17448;47.200;10.902;2023-03-01T04:12:32;40.58;;;24.00;;
30697;SDS011;17448;47.200;10.902;2023-03-01T04:14:59;38.08;;;21.65;;
30697;SDS011;17448;47.200;10.902;2023-03-01T04:17:38;45.10;;;24.60;;
30697;SDS011;17448;47.200;10.902;2023-03-01T04:20:04;39.70;;;22.65;;
30697;SDS011;17448;47.200;10.902;2023-03-01T04:22:32;42.90;;;23.27;;
30697;SDS011;17448;47.200;10.902;2023-03-01T04:24:58;44.25;;;24.65;;
30697;SDS011;17448;47.200;10.902;2023-03-01T04:27:32;45.63;;;24.23;;
30697;SDS011;17448;47.200;10.902;2023-03-01T04:30:02;45.45;;;24.20;;
30697;SDS011;17448;47.200;10.902;2023-03-01T04:32:29;40.78;;;24.05;;
30697;SDS011;17448;47.200;10.902;2023-03-01T04:34:55;33.38;;;20.83;;
30697;SDS011;17448;47.200;10.902;2023-03-01T04:37:22;43.58;;;24.30;;
30697;SDS011;17448;47.200;10.902;2023-03-01T04:39:49;43.70;;;23.80;;
30697;SDS011;17448;47.200;10.902;2023-03-01T04:42:15;38.78;;;21.50;;
30697;SDS011;17448;47.200;10.902;2023-03-01T04:44:45;46.05;;;22.45;;
30697;SDS011;17448;47.200;10.902;2023-03-01T04:47:11;46.63;;;24.33;;
30697;SDS011;17448;47.200;10.902;2023-03-01T04:49:38;43.42;;;23.05;;
30697;SDS011;17448;47.200;10.902;2023-03-01T04:52:04;38.63;;;21.08;;
30697;SDS011;17448;47.200;10.902;2023-03-01T04:54:32;36.92;;;18.85;;
30697;SDS011;17448;47.200;10.902;2023-03-01T04:56:58;35.72;;;19.90;;
30697;SDS011;17448;47.200;10.902;2023-03-01T04:59:24;34.05;;;19.02;;
30697;SDS011;17448;47.200;10.902;2023-03-01T05:01:51;32.03;;;17.80;;
30697;SDS011;17448;47.200;10.902;2023-03-01T05:04:20;30.95;;;17.55;;
30697;SDS011;17448;47.200;10.902;2023-03-01T05:06:47;32.97;;;18.05;;
30697;SDS011;17448;47.200;10.902;2023-03-01T05:09:13;26.88;;;15.02;;
30697;SDS011;17448;47.200;10.902;2023-03-01T05:11:39;29.42;;;16.05;;
30697;SDS011;17448;47.200;10.902;2023-03-01T05:14:05;31.30;;;16.08;;
30697;SDS011;17448;47.200;10.902;2023-03-01T05:16:32;29.23;;;16.45;;
30697;SDS011;17448;47.200;10.902;2023-03-01T05:18:59;28.77;;;15.07;;
30697;SDS011;17448;47.200;10.902;2023-03-01T05:21:25;26.75;;;15.77;;
30697;SDS011;17448;47.200;10.902;2023-03-01T05:23:51;29.13;;;14.88;;
30697;SDS011;17448;47.200;10.902;2023-03-01T05:26:18;28.00;;;15.77;;
30697;SDS011;17448;47.200;10.902;2023-03-01T05:28:47;30.40;;;16.58;;
30697;SDS011;17448;47.200;10.902;2023-03-01T05:31:13;34.05;;;17.02;;
30697;SDS011;17448;47.200;10.902;2023-03-01T05:33:39;28.40;;;15.93;;
30697;SDS011;17448;47.200;10.902;2023-03-01T05:36:09;32.63;;;17.80;;
30697;SDS011;17448;47.200;10.902;2023-03-01T05:38:35;29.05;;;16.20;;
30697;SDS011;17448;47.200;10.902;2023-03-01T05:41:01;28.98;;;15.60;;
30697;SDS011;17448;47.200;10.902;2023-03-01T05:43:30;29.05;;;15.05;;
30697;SDS011;17448;47.200;10.902;2023-03-01T05:45:59;26.08;;;14.18;;
30697;SDS011;17448;47.200;10.902;2023-03-01T05:48:26;32.00;;;14.93;;
30697;SDS011;17448;47.200;10.902;2023-03-01T05:50:52;25.10;;;13.43;;
30697;SDS011;17448;47.200;10.902;2023-03-01T05:53:18;31.30;;;14.48;;
30697;SDS011;17448;47.200;10.902;2023-03-01T05:55:48;25.60;;;14.32;;
30697;SDS011;17448;47.200;10.902;2023-03-01T05:58:16;30.55;;;15.18;;
30697;SDS011;17448;47.200;10.902;2023-03-01T06:00:43;24.75;;;13.90;;
30697;SDS011;17448;47.200;10.902;2023-03-01T06:03:10;33.38;;;14.75;;
30697;SDS011;17448;47.200;10.902;2023-03-01T06:05:36;29.73;;;15.60;;
30697;SDS011;17448;47.200;10.902;2023-03-01T06:08:02;34.53;;;14.00;;
30697;SDS011;17448;47.200;10.902;2023-03-01T06:10:29;26.33;;;13.15;;
30697;SDS011;17448;47.200;10.902;2023-03-01T06:12:56;25.35;;;14.77;;
30697;SDS011;17448;47.200;10.902;2023-03-01T06:15:23;26.10;;;14.30;;
30697;SDS011;17448;47.200;10.902;2023-03-01T06:17:50;25.95;;;13.77;;
30697;SDS011;17448;47.200;10.902;2023-03-01T06:20:19;23.73;;;13.18;;
30697;SDS011;17448;47.200;10.902;2023-03-01T06:22:46;24.27;;;13.73;;
30697;SDS011;17448;47.200;10.902;2023-03-01T06:25:13;26.08;;;13.70;;
30697;SDS011;17448;47.200;10.902;2023-03-01T06:27:39;26.00;;;12.93;;
30697;SDS011;17448;47.200;10.902;2023-03-01T06:30:06;25.33;;;13.35;;
30697;SDS011;17448;47.200;10.902;2023-03-01T06:32:33;23.55;;;12.48;;
30697;SDS011;17448;47.200;10.902;2023-03-01T06:35:03;24.23;;;13.95;;
30697;SDS011;17448;47.200;10.902;2023-03-01T06:37:29;23.33;;;12.95;;
30697;SDS011;17448;47.200;10.902;2023-03-01T06:39:55;25.02;;;13.35;;
30697;SDS011;17448;47.200;10.902;2023-03-01T06:42:22;28.27;;;14.38;;
30697;SDS011;17448;47.200;10.902;2023-03-01T06:44:48;35.53;;;19.20;;
30697;SDS011;17448;47.200;10.902;2023-03-01T06:47:14;43.42;;;23.48;;
30697;SDS011;17448;47.200;10.902;2023-03-01T06:49:41;45.80;;;24.20;;
30697;SDS011;17448;47.200;10.902;2023-03-01T06:52:07;46.05;;;25.58;;
30697;SDS011;17448;47.200;10.902;2023-03-01T06:54:33;48.50;;;24.58;;
30697;SDS011;17448;47.200;10.902;2023-03-01T06:56:59;48.50;;;25.15;;
30697;SDS011;17448;47.200;10.902;2023-03-01T06:59:25;49.00;;;25.70;;
30697;SDS011;17448;47.200;10.902;2023-03-01T07:01:52;48.20;;;24.17;;
30697;SDS011;17448;47.200;10.902;2023-03-01T07:04:18;42.72;;;22.83;;
30697;SDS011;17448;47.200;10.902;2023-03-01T07:06:44;42.42;;;22.85;;
30697;SDS011;17448;47.200;10.902;2023-03-01T07:09:10;43.38;;;21.90;;
30697;SDS011;17448;47.200;10.902;2023-03-01T07:11:37;41.97;;;20.02;;
30697;SDS011;17448;47.200;10.902;2023-03-01T07:14:03;34.42;;;17.60;;
30697;SDS011;17448;47.200;10.902;2023-03-01T07:16:32;32.58;;;15.70;;
30697;SDS011;17448;47.200;10.902;2023-03-01T07:18:59;31.75;;;15.18;;
30697;SDS011;17448;47.200;10.902;2023-03-01T07:21:25;26.55;;;14.40;;
30697;SDS011;17448;47.200;10.902;2023-03-01T07:23:51;37.17;;;15.27;;
30697;SDS011;17448;47.200;10.902;2023-03-01T07:26:17;35.63;;;14.55;;
30697;SDS011;17448;47.200;10.902;2023-03-01T07:28:43;28.98;;;15.18;;
30697;SDS011;17448;47.200;10.902;2023-03-01T07:31:10;28.42;;;14.32;;
30697;SDS011;17448;47.200;10.902;2023-03-01T07:33:36;26.23;;;13.82;;
30697;SDS011;17448;47.200;10.902;2023-03-01T07:36:03;27.38;;;13.95;;
30697;SDS011;17448;47.200;10.902;2023-03-01T07:38:29;32.33;;;12.75;;
30697;SDS011;17448;47.200;10.902;2023-03-01T07:40:59;28.23;;;14.00;;
30697;SDS011;17448;47.200;10.902;2023-03-01T07:43:26;29.02;;;13.25;;
30697;SDS011;17448;47.200;10.902;2023-03-01T07:45:52;30.58;;;13.10;;
30697;SDS011;17448;47.200;10.902;2023-03-01T07:48:19;24.00;;;13.10;;
30697;SDS011;17448;47.200;10.902;2023-03-01T07:50:45;24.40;;;13.02;;
30697;SDS011;17448;47.200;10.902;2023-03-01T07:53:12;28.42;;;14.82;;
30697;SDS011;17448;47.200;10.902;2023-03-01T07:55:38;25.67;;;13.27;;
30697;SDS011;17448;47.200;10.902;2023-03-01T07:58:05;57.55;;;17.55;;
30697;SDS011;17448;47.200;10.902;2023-03-01T08:00:31;28.23;;;12.45;;
30697;SDS011;17448;47.200;10.902;2023-03-01T08:03:01;24.25;;;12.77;;
30697;SDS011;17448;47.200;10.902;2023-03-01T08:05:28;23.65;;;13.35;;
30697;SDS011;17448;47.200;10.902;2023-03-01T08:07:54;24.77;;;12.70;;
30697;SDS011;17448;47.200;10.902;2023-03-01T08:10:20;28.13;;;13.05;;
30697;SDS011;17448;47.200;10.902;2023-03-01T08:12:46;20.77;;;12.07;;
30697;SDS011;17448;47.200;10.902;2023-03-01T08:15:13;19.67;;;12.45;;
30697;SDS011;17448;47.200;10.902;2023-03-01T08:17:39;24.63;;;12.45;;
30697;SDS011;17448;47.200;10.902;2023-03-01T08:20:05;17.98;;;11.32;;
30697;SDS011;17448;47.200;10.902;2023-03-01T08:22:32;19.73;;;12.38;;
30697;SDS011;17448;47.200;10.902;2023-03-01T08:24:58;21.20;;;11.95;;
30697;SDS011;17448;47.200;10.902;2023-03-01T08:27:24;41.92;;;14.25;;
30697;SDS011;17448;47.200;10.902;2023-03-01T08:29:50;28.52;;;11.90;;
30697;SDS011;17448;47.200;10.902;2023-03-01T08:32:19;21.83;;;11.43;;
30697;SDS011;17448;47.200;10.902;2023-03-01T08:34:48;18.38;;;10.52;;
30697;SDS011;17448;47.200;10.902;2023-03-01T08:37:14;27.92;;;11.05;;
30697;SDS011;17448;47.200;10.902;2023-03-01T08:39:40;19.80;;;10.20;;
30697;SDS011;17448;47.200;10.902;2023-03-01T08:42:07;22.35;;;11.23;;
30697;SDS011;17448;47.200;10.902;2023-03-01T08:44:33;19.70;;;10.68;;
30697;SDS011;17448;47.200;10.902;2023-03-01T08:47:00;22.60;;;10.88;;
30697;SDS011;17448;47.200;10.902;2023-03-01T08:49:27;20.95;;;11.55;;
30697;SDS011;17448;47.200;10.902;2023-03-01T08:51:53;15.55;;;9.80;;
30697;SDS011;17448;47.200;10.902;2023-03-01T08:54:21;17.92;;;10.50;;
30697;SDS011;17448;47.200;10.902;2023-03-01T08:56:47;23.40;;;11.70;;
30697;SDS011;17448;47.200;10.902;2023-03-01T08:59:15;19.83;;;10.73;;
30697;SDS011;17448;47.200;10.902;2023-03-01T09:01:44;18.92;;;10.73;;
30697;SDS011;17448;47.200;10.902;2023-03-01T11:57:33;12.75;;;7.93;;
30697;SDS011;17448;47.200;10.902;2023-03-01T12:07:58;13.07;;;7.82;;
30697;SDS011;17448;47.200;10.902;2023-03-01T12:19:06;10.27;;;7.00;;
30697;SDS011;17448;47.200;10.902;2023-03-01T12:21:43;10.45;;;7.47;;
30697;SDS011;17448;47.200;10.902;2023-03-01T12:27:00;12.65;;;7.78;;
30697;SDS011;17448;47.200;10.902;2023-03-01T12:29:37;12.90;;;7.30;;
30697;SDS011;17448;47.200;10.902;2023-03-01T12:42:48;12.05;;;6.43;;
30697;SDS011;17448;47.200;10.902;2023-03-01T12:50:57;14.80;;;7.90;;
30697;SDS011;17448;47.200;10.902;2023-03-01T12:53:36;9.80;;;6.40;;
30697;SDS011;17448;47.200;10.902;2023-03-01T12:56:07;10.00;;;7.35;;
30697;SDS011;17448;47.200;10.902;2023-03-01T13:01:26;12.63;;;5.55;;
30697;SDS011;17448;47.200;10.902;2023-03-01T13:04:17;9.85;;;6.25;;
30697;SDS011;17448;47.200;10.902;2023-03-01T13:06:55;11.63;;;7.88;;
30697;SDS011;17448;47.200;10.902;2023-03-01T13:11:51;9.43;;;6.78;;
30697;SDS011;17448;47.200;10.902;2023-03-01T13:16:46;13.18;;;5.75;;
30697;SDS011;17448;47.200;10.902;2023-03-01T13:19:16;9.13;;;5.40;;
30697;SDS011;17448;47.200;10.902;2023-03-01T13:21:44;8.68;;;5.35;;
30697;SDS011;17448;47.200;10.902;2023-03-01T13:24:23;8.02;;;5.80;;
30697;SDS011;17448;47.200;10.902;2023-03-01T13:29:55;7.10;;;5.65;;
30697;SDS011;17448;47.200;10.902;2023-03-01T13:32:30;8.15;;;5.82;;
30697;SDS011;17448;47.200;10.902;2023-03-01T13:34:58;9.45;;;6.45;;
30697;SDS011;17448;47.200;10.902;2023-03-01T13:37:29;9.10;;;6.38;;
30697;SDS011;17448;47.200;10.902;2023-03-01T13:39:56;13.80;;;6.78;;
30697;SDS011;17448;47.200;10.902;2023-03-01T13:43:06;10.35;;;6.25;;
30697;SDS011;17448;47.200;10.902;2023-03-01T13:45:17;8.10;;;6.13;;
30697;SDS011;17448;47.200;10.902;2023-03-01T13:47:45;9.15;;;6.32;;
30697;SDS011;17448;47.200;10.902;2023-03-01T13:50:21;18.67;;;6.75;;
30697;SDS011;17448;47.200;10.902;2023-03-01T13:53:03;9.57;;;6.38;;
30697;SDS011;17448;47.200;10.902;2023-03-01T13:55:32;10.13;;;3.80;;
30697;SDS011;17448;47.200;10.902;2023-03-01T13:58:01;7.63;;;2.95;;
30697;SDS011;17448;47.200;10.902;2023-03-01T14:05:31;13.57;;;3.88;;
30697;SDS011;17448;47.200;10.902;2023-03-01T14:07:57;10.10;;;3.88;;
30697;SDS011;17448;47.200;10.902;2023-03-01T14:10:25;11.23;;;4.78;;
30697;SDS011;17448;47.200;10.902;2023-03-01T14:13:10;12.35;;;8.20;;
30697;SDS011;17448;47.200;10.902;2023-03-01T14:16:06;14.40;;;5.70;;
30697;SDS011;17448;47.200;10.902;2023-03-01T14:18:29;13.73;;;7.07;;
30697;SDS011;17448;47.200;10.902;2023-03-01T14:20:59;12.68;;;6.20;;
30697;SDS011;17448;47.200;10.902;2023-03-01T14:23:26;16.70;;;6.15;;
30697;SDS011;17448;47.200;10.902;2023-03-01T14:25:54;16.55;;;5.85;;
30697;SDS011;17448;47.200;10.902;2023-03-01T14:28:27;6.53;;;4.28;;
30697;SDS011;17448;47.200;10.902;2023-03-01T14:33:30;12.93;;;5.40;;
30697;SDS011;17448;47.200;10.902;2023-03-01T14:38:29;11.13;;;6.28;;
30697;SDS011;17448;47.200;10.902;2023-03-01T14:41:00;8.57;;;4.78;;
30697;SDS011;17448;47.200;10.902;2023-03-01T14:43:27;7.22;;;5.18;;
30697;SDS011;17448;47.200;10.902;2023-03-01T14:45:54;13.30;;;6.15;;
30697;SDS011;17448;47.200;10.902;2023-03-01T14:48:21;17.65;;;5.75;;
30697;SDS011;17448;47.200;10.902;2023-03-01T14:50:47;29.05;;;5.80;;
30697;SDS011;17448;47.200;10.902;2023-03-01T14:53:19;17.45;;;4.75;;
30697;SDS011;17448;47.200;10.902;2023-03-01T14:55:47;11.90;;;5.18;;
30697;SDS011;17448;47.200;10.902;2023-03-01T14:58:15;101.05;;;11.73;;
30697;SDS011;17448;47.200;10.902;2023-03-01T15:01:00;17.25;;;4.75;;
30697;SDS011;17448;47.200;10.902;2023-03-01T15:06:04;8.50;;;5.55;;
30697;SDS011;17448;47.200;10.902;2023-03-01T15:08:31;19.67;;;6.10;;
30697;SDS011;17448;47.200;10.902;2023-03-01T15:13:39;9.75;;;5.13;;
30697;SDS011;17448;47.200;10.902;2023-03-01T15:18:32;29.17;;;7.50;;
30697;SDS011;17448;47.200;10.902;2023-03-01T15:33:17;9.07;;;4.40;;
30697;SDS011;17448;47.200;10.902;2023-03-01T15:35:51;16.70;;;4.90;;
30697;SDS011;17448;47.200;10.902;2023-03-01T15:38:25;22.88;;;6.63;;
30697;SDS011;17448;47.200;10.902;2023-03-01T15:40:52;32.25;;;7.55;;
30697;SDS011;17448;47.200;10.902;2023-03-01T15:43:41;28.92;;;6.65;;
30697;SDS011;17448;47.200;10.902;2023-03-01T15:46:18;12.93;;;4.38;;
30697;SDS011;17448;47.200;10.902;2023-03-01T15:48:48;9.77;;;5.03;;
30697;SDS011;17448;47.200;10.902;2023-03-01T15:51:17;12.13;;;4.25;;
30697;SDS011;17448;47.200;10.902;2023-03-01T15:53:47;14.52;;;3.88;;
30697;SDS011;17448;47.200;10.902;2023-03-01T15:56:15;7.30;;;3.90;;
30697;SDS011;17448;47.200;10.902;2023-03-01T15:58:42;10.93;;;5.15;;
30697;SDS011;17448;47.200;10.902;2023-03-01T16:01:11;24.25;;;5.70;;
30697;SDS011;17448;47.200;10.902;2023-03-01T16:03:38;9.63;;;4.78;;
30697;SDS011;17448;47.200;10.902;2023-03-01T16:06:04;21.15;;;6.95;;
30697;SDS011;17448;47.200;10.902;2023-03-01T16:08:31;35.75;;;12.25;;
30697;SDS011;17448;47.200;10.902;2023-03-01T16:10:57;34.50;;;13.80;;
30697;SDS011;17448;47.200;10.902;2023-03-01T16:13:23;54.78;;;16.23;;
30697;SDS011;17448;47.200;10.902;2023-03-01T16:15:50;30.92;;;13.60;;
30697;SDS011;17448;47.200;10.902;2023-03-01T16:18:16;3.35;;;2.90;;
30697;SDS011;17448;47.200;10.902;2023-03-01T16:20:43;14.68;;;5.75;;
30697;SDS011;17448;47.200;10.902;2023-03-01T16:23:10;16.92;;;7.47;;
30697;SDS011;17448;47.200;10.902;2023-03-01T16:25:37;15.50;;;7.18;;
30697;SDS011;17448;47.200;10.902;2023-03-01T16:28:03;14.80;;;7.18;;
30697;SDS011;17448;47.200;10.902;2023-03-01T16:30:33;21.73;;;7.88;;
30697;SDS011;17448;47.200;10.902;2023-03-01T16:33:00;18.67;;;9.70;;
30697;SDS011;17448;47.200;10.902;2023-03-01T16:35:26;22.67;;;9.30;;
30697;SDS011;17448;47.200;10.902;2023-03-01T16:37:54;19.67;;;9.45;;
30697;SDS011;17448;47.200;10.902;2023-03-01T16:40:24;27.23;;;10.20;;
30697;SDS011;17448;47.200;10.902;2023-03-01T16:42:51;23.55;;;10.90;;
30697;SDS011;17448;47.200;10.902;2023-03-01T16:45:18;18.77;;;9.75;;
30697;SDS011;17448;47.200;10.902;2023-03-01T16:47:44;23.92;;;10.70;;
30697;SDS011;17448;47.200;10.902;2023-03-01T16:50:11;25.80;;;10.18;;
30697;SDS011;17448;47.200;10.902;2023-03-01T16:52:37;23.80;;;11.10;;
30697;SDS011;17448;47.200;10.902;2023-03-01T16:55:04;21.58;;;10.30;;
30697;SDS011;17448;47.200;10.902;2023-03-01T16:57:30;18.83;;;10.18;;
30697;SDS011;17448;47.200;10.902;2023-03-01T16:59:56;19.40;;;9.07;;
30697;SDS011;17448;47.200;10.902;2023-03-01T17:02:23;9.25;;;6.13;;
30697;SDS011;17448;47.200;10.902;2023-03-01T17:04:52;17.73;;;8.93;;
30697;SDS011;17448;47.200;10.902;2023-03-01T17:07:19;8.75;;;4.25;;
30697;SDS011;17448;47.200;10.902;2023-03-01T17:09:45;13.05;;;5.60;;
30697;SDS011;17448;47.200;10.902;2023-03-01T17:12:12;10.68;;;6.03;;
30697;SDS011;17448;47.200;10.902;2023-03-01T17:17:23;9.88;;;6.22;;
30697;SDS011;17448;47.200;10.902;2023-03-01T17:19:49;14.40;;;8.73;;
30697;SDS011;17448;47.200;10.902;2023-03-01T17:22:15;19.15;;;9.98;;
30697;SDS011;17448;47.200;10.902;2023-03-01T17:24:42;16.90;;;9.05;;
30697;SDS011;17448;47.200;10.902;2023-03-01T17:27:10;21.20;;;11.48;;
30697;SDS011;17448;47.200;10.902;2023-03-01T17:29:37;31.30;;;15.75;;
30697;SDS011;17448;47.200;10.902;2023-03-01T17:32:04;23.88;;;14.35;;
30697;SDS011;17448;47.200;10.902;2023-03-01T17:34:32;23.50;;;14.40;;
30697;SDS011;17448;47.200;10.902;2023-03-01T17:37:00;25.08;;;13.73;;
30697;SDS011;17448;47.200;10.902;2023-03-01T17:39:27;26.30;;;13.93;;
30697;SDS011;17448;47.200;10.902;2023-03-01T17:42:01;23.75;;;13.20;;
30697;SDS011;17448;47.200;10.902;2023-03-01T17:44:29;31.17;;;14.48;;
30697;SDS011;17448;47.200;10.902;2023-03-01T17:46:56;28.08;;;14.88;;
30697;SDS011;17448;47.200;10.902;2023-03-01T17:49:23;19.95;;;12.25;;
30697;SDS011;17448;47.200;10.902;2023-03-01T17:51:49;21.33;;;11.98;;
30697;SDS011;17448;47.200;10.902;2023-03-01T17:54:15;25.27;;;12.10;;
30697;SDS011;17448;47.200;10.902;2023-03-01T17:56:42;20.88;;;12.40;;
30697;SDS011;17448;47.200;10.902;2023-03-01T17:59:08;19.63;;;11.43;;
30697;SDS011;17448;47.200;10.902;2023-03-01T18:01:35;26.58;;;12.73;;
30697;SDS011;17448;47.200;10.902;2023-03-01T18:04:02;29.33;;;14.25;;
30697;SDS011;17448;47.200;10.902;2023-03-01T18:06:29;19.98;;;10.40;;
30697;SDS011;17448;47.200;10.902;2023-03-01T18:08:55;33.00;;;16.92;;
30697;SDS011;17448;47.200;10.902;2023-03-01T18:11:23;28.10;;;14.55;;
30697;SDS011;17448;47.200;10.902;2023-03-01T18:13:50;30.52;;;15.32;;
30697;SDS011;17448;47.200;10.902;2023-03-01T18:16:18;21.38;;;12.13;;
30697;SDS011;17448;47.200;10.902;2023-03-01T18:18:45;22.00;;;12.15;;
30697;SDS011;17448;47.200;10.902;2023-03-01T18:21:11;25.85;;;12.35;;
30697;SDS011;17448;47.200;10.902;2023-03-01T18:23:38;27.98;;;14.88;;
30697;SDS011;17448;47.200;10.902;2023-03-01T18:26:07;23.55;;;13.45;;
30697;SDS011;17448;47.200;10.902;2023-03-01T18:28:33;21.98;;;12.60;;
30697;SDS011;17448;47.200;10.902;2023-03-01T18:31:03;22.92;;;11.98;;
30697;SDS011;17448;47.200;10.902;2023-03-01T18:33:32;22.00;;;11.77;;
30697;SDS011;17448;47.200;10.902;2023-03-01T18:35:58;21.33;;;11.65;;
30697;SDS011;17448;47.200;10.902;2023-03-01T18:38:25;21.13;;;12.15;;
30697;SDS011;17448;47.200;10.902;2023-03-01T18:40:55;20.95;;;12.60;;
30697;SDS011;17448;47.200;10.902;2023-03-01T18:43:22;19.48;;;11.38;;